createdAt,value
2019-02-23T00:00:40.512Z,30.80
2019-02-23T00:03:51.346Z,30.90
2019-02-23T00:06:57.132Z,30.80
2019-02-23T00:10:02.960Z,30.80
2019-02-23T00:13:09.522Z,30.80
2019-02-23T00:16:15.280Z,30.90
2019-02-23T00:19:24.889Z,30.80
2019-02-23T00:22:28.675Z,30.60
2019-02-23T00:25:34.505Z,30.80
2019-02-23T00:28:40.361Z,30.50
2019-02-23T00:31:46.312Z,30.50
2019-02-23T00:34:52.275Z,30.50
2019-02-23T00:37:58.278Z,30.50
2019-02-23T00:41:04.128Z,30.50
2019-02-23T00:44:10.152Z,30.40
2019-02-23T00:47:17.137Z,30.40
2019-02-23T00:50:23.136Z,30.50
2019-02-23T00:53:28.888Z,30.40
2019-02-23T00:56:34.648Z,30.40
2019-02-23T00:59:40.357Z,31.10
2019-02-23T01:02:46.112Z,30.90
2019-02-23T01:05:52.008Z,30.20
2019-02-23T01:08:57.727Z,30.20
2019-02-23T01:12:03.585Z,30.10
2019-02-23T01:15:10.674Z,30.00
2019-02-23T01:18:16.535Z,30.00
2019-02-23T01:21:22.528Z,29.90
2019-02-23T01:24:28.348Z,29.90
2019-02-23T01:27:34.316Z,29.80
2019-02-23T01:30:40.303Z,29.80
2019-02-23T01:33:46.016Z,29.90
2019-02-23T01:36:53.047Z,29.80
2019-02-23T01:39:59.068Z,30.30
2019-02-23T01:43:04.928Z,29.70
2019-02-23T01:46:10.936Z,29.70
2019-02-23T01:49:16.752Z,29.70
2019-02-23T01:52:22.748Z,29.70
2019-02-23T01:55:28.563Z,29.70
2019-02-23T01:58:34.531Z,29.70
2019-02-23T02:01:40.933Z,29.60
2019-02-23T02:04:46.857Z,29.60
2019-02-23T02:07:52.856Z,29.60
2019-02-23T02:10:59.835Z,29.50
2019-02-23T02:14:05.963Z,29.60
2019-02-23T02:17:12.268Z,29.50
2019-02-23T02:20:18.188Z,29.40
2019-02-23T02:23:24.192Z,29.40
2019-02-23T02:26:30.012Z,29.40
2019-02-23T02:29:36.027Z,29.30
2019-02-23T02:32:41.928Z,29.30
2019-02-23T02:35:47.952Z,29.30
2019-02-23T02:38:53.892Z,29.20
2019-02-23T02:42:00.733Z,29.30
2019-02-23T02:45:07.652Z,29.20
2019-02-23T02:48:13.400Z,29.20
2019-02-23T02:51:19.238Z,29.20
2019-02-23T02:54:25.342Z,29.20
2019-02-23T02:57:31.383Z,29.20
2019-02-23T03:00:37.407Z,29.10
2019-02-23T03:03:43.275Z,29.00
2019-02-23T03:06:49.332Z,29.00
2019-02-23T03:09:55.395Z,29.00
2019-02-23T03:13:02.381Z,29.00
2019-02-23T03:16:08.334Z,29.10
2019-02-23T03:19:14.300Z,29.00
2019-02-23T03:22:20.247Z,28.90
2019-02-23T03:25:26.108Z,28.90
2019-02-23T03:28:32.074Z,28.80
2019-02-23T03:31:37.872Z,28.80
2019-02-23T03:34:43.892Z,28.80
2019-02-23T03:37:49.847Z,28.70
2019-02-23T03:40:55.708Z,28.50
2019-02-23T03:44:01.668Z,28.60
2019-02-23T03:47:07.624Z,28.70
2019-02-23T03:50:13.387Z,28.70
2019-02-23T03:53:19.136Z,28.60
2019-02-23T03:56:24.998Z,28.60
2019-02-23T03:59:30.844Z,28.60
2019-02-23T04:02:36.740Z,28.60
2019-02-23T04:05:42.452Z,28.60
2019-02-23T04:08:48.322Z,28.50
2019-02-23T04:11:54.172Z,28.50
2019-02-23T04:15:00.397Z,28.60
2019-02-23T04:18:06.233Z,28.70
2019-02-23T04:21:12.052Z,28.80
2019-02-23T04:24:17.919Z,28.70
2019-02-23T04:27:23.877Z,28.80
2019-02-23T04:30:29.734Z,28.70
2019-02-23T04:33:35.727Z,28.70
2019-02-23T04:36:41.649Z,28.70
2019-02-23T04:39:47.518Z,28.90
2019-02-23T04:42:53.472Z,28.50
2019-02-23T04:45:59.333Z,28.60
2019-02-23T04:49:05.329Z,28.50
2019-02-23T04:52:11.189Z,28.40
2019-02-23T04:55:17.009Z,28.30
2019-02-23T04:58:23.064Z,28.30
2019-02-23T05:01:29.024Z,28.30
2019-02-23T05:04:34.880Z,28.20
2019-02-23T05:07:40.886Z,28.20
2019-02-23T05:10:46.809Z,28.20
2019-02-23T05:13:52.770Z,28.30
2019-02-23T05:16:58.516Z,28.40
2019-02-23T05:20:06.010Z,28.40
2019-02-23T05:23:12.124Z,28.50
2019-02-23T05:26:17.939Z,28.40
2019-02-23T05:29:23.839Z,28.30
2019-02-23T05:32:29.537Z,28.30
2019-02-23T05:35:35.332Z,28.20
2019-02-23T05:38:41.196Z,28.20
2019-02-23T05:41:47.130Z,28.20
2019-02-23T05:44:53.080Z,28.20
2019-02-23T05:47:59.076Z,28.10
2019-02-23T05:51:04.995Z,28.10
2019-02-23T05:54:10.990Z,28.10
2019-02-23T05:57:16.813Z,28.20
2019-02-23T06:00:22.754Z,29.10
2019-02-23T06:03:28.711Z,28.60
2019-02-23T06:06:34.668Z,28.80
2019-02-23T06:09:40.566Z,29.10
2019-02-23T06:12:46.415Z,29.60
2019-02-23T06:15:52.132Z,29.80
2019-02-23T06:18:57.932Z,30.00
2019-02-23T06:22:03.736Z,30.10
2019-02-23T06:25:10.255Z,30.20
2019-02-23T06:28:16.044Z,30.20
2019-02-23T06:31:21.921Z,30.20
2019-02-23T06:34:27.728Z,30.20
2019-02-23T06:37:33.544Z,30.10
2019-02-23T06:40:39.548Z,30.30
2019-02-23T06:43:45.406Z,30.50
2019-02-23T06:46:51.364Z,30.40
2019-02-23T06:49:57.244Z,30.40
2019-02-23T06:53:03.238Z,30.20
2019-02-23T06:56:09.134Z,30.20
2019-02-23T06:59:15.063Z,30.10
2019-02-23T07:02:20.808Z,28.30
2019-02-23T07:05:26.680Z,28.40
2019-02-23T07:08:32.762Z,28.30
2019-02-23T07:11:39.512Z,28.50
2019-02-23T07:14:45.576Z,28.80
2019-02-23T07:17:51.438Z,29.00
2019-02-23T07:20:57.298Z,29.10
2019-02-23T07:24:03.296Z,29.10
2019-02-23T07:27:09.108Z,29.20
2019-02-23T07:30:15.078Z,29.20
2019-02-23T07:33:32.355Z,29.40
2019-02-23T07:36:28.631Z,29.50
2019-02-23T07:39:34.479Z,29.90
2019-02-23T07:42:40.341Z,29.90
2019-02-23T07:45:46.204Z,30.50
2019-02-23T07:48:52.158Z,30.00
2019-02-23T07:51:58.115Z,30.00
2019-02-23T07:55:04.083Z,29.80
2019-02-23T07:58:10.959Z,29.70
2019-02-23T08:01:16.824Z,29.70
2019-02-23T08:04:22.616Z,29.80
2019-02-23T08:07:28.639Z,29.90
2019-02-23T08:10:34.499Z,31.00
2019-02-23T08:13:40.780Z,31.70
2019-02-23T08:16:46.981Z,31.70
2019-02-23T08:19:52.811Z,31.60
2019-02-23T08:22:58.740Z,31.40
2019-02-23T08:26:04.607Z,31.40
2019-02-23T08:29:10.451Z,31.20
2019-02-23T08:32:16.719Z,31.00
2019-02-23T08:35:22.872Z,30.80
2019-02-23T08:38:28.852Z,30.80
2019-02-23T08:41:35.728Z,30.70
2019-02-23T08:44:42.612Z,30.60
2019-02-23T08:47:48.475Z,30.50
2019-02-23T08:50:54.355Z,30.30
2019-02-23T08:54:00.076Z,30.20
2019-02-23T08:57:05.940Z,30.10
2019-02-23T09:00:13.947Z,30.00
2019-02-23T09:03:20.715Z,29.90
2019-02-23T09:06:26.520Z,29.80
2019-02-23T09:09:32.337Z,29.60
2019-02-23T09:12:38.341Z,29.60
2019-02-23T09:15:44.358Z,29.50
2019-02-23T09:18:50.116Z,29.40
2019-02-23T09:21:55.979Z,29.40
2019-02-23T09:25:01.933Z,29.20
2019-02-23T09:28:07.905Z,29.10
2019-02-23T09:31:14.000Z,29.10
2019-02-23T09:34:19.921Z,29.00
2019-02-23T09:37:25.932Z,29.00
2019-02-23T09:40:31.835Z,28.80
2019-02-23T09:43:37.731Z,28.80
2019-02-23T09:46:43.688Z,28.80
2019-02-23T09:49:49.719Z,28.70
2019-02-23T09:52:55.785Z,28.70
2019-02-23T09:56:01.572Z,28.60
2019-02-23T09:59:07.397Z,28.60
2019-02-23T10:02:13.566Z,28.60
2019-02-23T10:05:19.311Z,28.60
2019-02-23T10:08:25.171Z,28.60
2019-02-23T10:11:30.968Z,28.50
2019-02-23T10:14:36.883Z,28.50
2019-02-23T10:17:42.905Z,28.50
2019-02-23T10:20:48.700Z,28.50
2019-02-23T10:23:54.712Z,28.50
2019-02-23T10:27:00.616Z,28.40
2019-02-23T10:30:07.431Z,28.40
2019-02-23T10:33:13.296Z,28.50
2019-02-23T10:36:19.152Z,28.40
2019-02-23T10:39:25.076Z,28.40
2019-02-23T10:42:31.180Z,28.30
2019-02-23T10:45:37.104Z,28.30
2019-02-23T10:48:43.000Z,28.30
2019-02-23T10:51:48.818Z,28.20
2019-02-23T10:54:54.668Z,28.20
2019-02-23T10:58:00.629Z,28.30
2019-02-23T11:01:07.119Z,28.20
2019-02-23T11:04:13.068Z,28.20
2019-02-23T11:07:19.324Z,28.20
2019-02-23T11:10:25.400Z,28.20
2019-02-23T11:13:31.252Z,28.20
2019-02-23T11:16:37.148Z,28.30
2019-02-23T11:19:43.071Z,28.20
2019-02-23T11:22:48.929Z,28.20
2019-02-23T11:25:54.780Z,28.30
2019-02-23T11:29:00.535Z,28.30
2019-02-23T11:32:07.552Z,28.20
2019-02-23T11:35:13.588Z,28.40
2019-02-23T11:38:19.442Z,28.20
2019-02-23T11:41:25.239Z,28.30
2019-02-23T11:44:31.091Z,28.30
2019-02-23T11:47:36.803Z,28.20
2019-02-23T11:50:42.915Z,28.30
2019-02-23T11:53:54.940Z,28.30
2019-02-23T11:56:56.260Z,28.30
2019-02-23T12:00:02.184Z,28.30
2019-02-23T12:03:08.057Z,28.30
2019-02-23T12:06:13.928Z,28.30
2019-02-23T12:09:19.782Z,28.80
2019-02-23T12:12:25.788Z,28.30
2019-02-23T12:15:31.806Z,28.30
2019-02-23T12:18:37.873Z,28.30
2019-02-23T12:21:43.824Z,28.30
2019-02-23T12:24:49.795Z,28.30
2019-02-23T12:27:55.780Z,28.30
2019-02-23T12:31:01.600Z,28.30
2019-02-23T12:34:07.560Z,28.30
2019-02-23T12:37:13.530Z,28.30
2019-02-23T12:40:19.495Z,28.30
2019-02-23T12:43:25.269Z,28.30
2019-02-23T12:46:30.983Z,28.20
2019-02-23T12:49:36.740Z,28.20
2019-02-23T12:52:42.600Z,28.30
2019-02-23T12:55:48.465Z,28.30
2019-02-23T12:58:54.365Z,28.30
2019-02-23T13:02:00.178Z,28.20
2019-02-23T13:05:06.544Z,28.20
2019-02-23T13:08:12.405Z,28.20
2019-02-23T13:11:18.261Z,28.20
2019-02-23T13:14:51.704Z,28.20
2019-02-23T13:18:47.436Z,28.20
2019-02-23T13:22:19.672Z,28.20
2019-02-23T13:25:42.931Z,28.20
2019-02-23T13:29:02.356Z,28.20
2019-02-23T13:32:51.691Z,28.30
2019-02-23T13:36:34.207Z,28.30
2019-02-23T13:40:20.612Z,28.30
2019-02-23T13:43:52.688Z,28.30
2019-02-23T13:47:41.448Z,28.30
2019-02-23T13:51:10.759Z,28.20
2019-02-23T13:54:59.220Z,28.40
2019-02-23T13:58:31.796Z,28.40
2019-02-23T14:02:16.880Z,28.40
2019-02-23T14:06:07.584Z,28.40
2019-02-23T14:10:00.349Z,28.50
2019-02-23T14:13:42.591Z,28.40
2019-02-23T14:17:16.060Z,28.20
2019-02-23T14:20:54.992Z,28.00
2019-02-23T14:24:21.836Z,27.90
2019-02-23T14:28:03.127Z,27.80
2019-02-23T14:32:02.236Z,27.90
2019-02-23T14:35:31.884Z,28.00
2019-02-23T14:39:32.796Z,28.10
2019-02-23T14:43:04.290Z,28.20
2019-02-23T14:46:56.245Z,28.40
2019-02-23T14:50:36.079Z,28.50
2019-02-23T14:54:03.718Z,28.60
2019-02-23T14:57:45.116Z,28.60
2019-02-23T15:01:34.831Z,28.60
2019-02-23T15:05:10.756Z,28.60
2019-02-23T15:08:56.895Z,28.60
2019-02-23T15:12:41.729Z,28.60
2019-02-23T15:16:39.853Z,28.50
2019-02-23T15:20:29.428Z,28.50
2019-02-23T15:24:01.568Z,28.40
2019-02-23T15:27:43.572Z,28.40
2019-02-23T15:31:25.000Z,28.30
2019-02-23T15:35:11.086Z,28.20
2019-02-23T15:39:02.394Z,28.20
2019-02-23T15:42:37.520Z,28.10
2019-02-23T15:46:08.234Z,28.20
2019-02-23T15:49:29.413Z,28.10
2019-02-23T15:52:35.401Z,28.10
2019-02-23T15:55:41.348Z,28.10
2019-02-23T15:58:47.053Z,28.10
2019-02-23T16:01:53.072Z,28.10
2019-02-23T16:04:58.972Z,28.10
2019-02-23T16:08:04.874Z,28.10
2019-02-23T16:11:10.831Z,28.10
2019-02-23T16:14:16.652Z,28.10
2019-02-23T16:17:22.448Z,28.10
2019-02-23T16:20:28.369Z,28.10
2019-02-23T16:23:35.596Z,28.20
2019-02-23T16:26:41.972Z,28.20
2019-02-23T16:29:48.006Z,28.80
2019-02-23T16:32:54.405Z,28.10
2019-02-23T16:36:00.315Z,28.10
2019-02-23T16:39:10.859Z,28.10
2019-02-23T16:42:18.317Z,28.10
2019-02-23T16:45:24.239Z,28.10
2019-02-23T16:48:30.349Z,28.00
2019-02-23T16:51:36.208Z,27.90
2019-02-23T16:54:42.230Z,28.00
2019-02-23T16:57:48.073Z,27.90
2019-02-23T17:00:54.142Z,27.90
2019-02-23T17:03:59.999Z,27.90
2019-02-23T17:07:06.074Z,27.90
2019-02-23T17:10:12.029Z,27.90
2019-02-23T17:13:17.988Z,27.90
2019-02-23T17:16:23.840Z,27.90
2019-02-23T17:19:29.700Z,27.90
2019-02-23T17:22:35.562Z,28.00
2019-02-23T17:25:41.409Z,27.90
2019-02-23T17:28:47.264Z,27.90
2019-02-23T17:31:53.119Z,27.80
2019-02-23T17:34:58.876Z,27.80
2019-02-23T17:38:15.737Z,27.80
2019-02-23T17:41:12.238Z,27.70
2019-02-23T17:44:18.100Z,27.90
2019-02-23T17:47:23.959Z,27.80
2019-02-23T17:50:30.030Z,27.70
2019-02-23T17:53:35.767Z,27.70
2019-02-23T17:56:41.732Z,27.70
2019-02-23T17:59:47.591Z,27.70
2019-02-23T18:02:53.704Z,27.70
2019-02-23T18:05:59.604Z,27.70
2019-02-23T18:09:07.304Z,27.80
2019-02-23T18:12:14.740Z,27.80
2019-02-23T18:15:20.660Z,27.80
2019-02-23T18:18:26.629Z,27.80
2019-02-23T18:21:32.484Z,27.70
2019-02-23T18:24:38.336Z,27.70
2019-02-23T18:27:44.240Z,27.70
2019-02-23T18:30:51.068Z,27.60
2019-02-23T18:33:56.930Z,27.60
2019-02-23T18:37:02.797Z,27.60
2019-02-23T18:40:08.948Z,27.50
2019-02-23T18:43:14.743Z,27.50
2019-02-23T18:46:20.572Z,27.40
2019-02-23T18:49:26.528Z,27.40
2019-02-23T18:52:32.391Z,27.40
2019-02-23T18:55:41.088Z,27.40
2019-02-23T18:58:45.781Z,27.40
2019-02-23T19:01:51.597Z,27.40
2019-02-23T19:04:57.459Z,27.30
2019-02-23T19:08:03.451Z,27.30
2019-02-23T19:11:10.605Z,27.30
2019-02-23T19:14:16.387Z,27.30
2019-02-23T19:17:22.108Z,27.20
2019-02-23T19:20:27.860Z,27.20
2019-02-23T19:23:33.764Z,27.20
2019-02-23T19:26:39.579Z,27.20
2019-02-23T19:29:45.582Z,27.20
2019-02-23T19:32:51.404Z,27.20
2019-02-23T19:35:57.361Z,27.20
2019-02-23T19:39:03.262Z,27.10
2019-02-23T19:42:10.928Z,27.10
2019-02-23T19:45:16.996Z,27.00
2019-02-23T19:48:22.989Z,27.00
2019-02-23T19:51:28.897Z,27.00
2019-02-23T19:54:34.696Z,27.00
2019-02-23T19:57:40.511Z,27.00
2019-02-23T20:00:46.479Z,27.00
2019-02-23T20:03:52.259Z,27.00
2019-02-23T20:06:58.175Z,27.00
2019-02-23T20:10:04.091Z,26.80
2019-02-23T20:13:09.999Z,26.90
2019-02-23T20:16:15.965Z,26.80
2019-02-23T20:19:21.860Z,26.80
2019-02-23T20:22:27.784Z,26.80
2019-02-23T20:25:33.796Z,26.70
2019-02-23T20:28:39.743Z,26.70
2019-02-23T20:31:45.660Z,26.70
2019-02-23T20:34:51.464Z,26.70
2019-02-23T20:37:57.472Z,26.70
2019-02-23T20:41:03.378Z,26.70
2019-02-23T20:44:09.228Z,26.70
2019-02-23T20:47:14.943Z,26.70
2019-02-23T20:50:22.030Z,26.60
2019-02-23T20:53:28.040Z,26.50
2019-02-23T20:56:33.964Z,26.50
2019-02-23T20:59:39.956Z,26.40
2019-02-23T21:02:45.780Z,26.20
2019-02-23T21:05:51.740Z,26.30
2019-02-23T21:08:57.701Z,26.20
2019-02-23T21:12:03.440Z,26.20
2019-02-23T21:15:09.647Z,26.10
2019-02-23T21:18:17.108Z,26.10
2019-02-23T21:21:22.975Z,26.00
2019-02-23T21:24:28.928Z,26.00
2019-02-23T21:27:34.892Z,26.00
2019-02-23T21:30:40.847Z,26.10
2019-02-23T21:33:46.808Z,26.10
2019-02-23T21:36:52.879Z,26.00
2019-02-23T21:39:58.839Z,26.10
2019-02-23T21:43:04.687Z,26.10
2019-02-23T21:46:10.444Z,26.20
2019-02-23T21:49:16.327Z,26.10
2019-02-23T21:52:22.048Z,26.20
2019-02-23T21:55:27.912Z,26.10
2019-02-23T21:58:33.669Z,26.10
2019-02-23T22:01:39.532Z,26.10
2019-02-23T22:04:45.528Z,26.00
2019-02-23T22:07:51.455Z,26.00
2019-02-23T22:10:57.412Z,26.00
2019-02-23T22:14:03.422Z,26.00
2019-02-23T22:17:09.545Z,25.90
2019-02-23T22:20:15.533Z,25.90
2019-02-23T22:23:21.456Z,25.90
2019-02-23T22:26:27.334Z,25.90
2019-02-23T22:29:33.224Z,25.80
2019-02-23T22:32:39.128Z,25.80
2019-02-23T22:35:45.192Z,25.80
2019-02-23T22:38:51.169Z,25.80
2019-02-23T22:41:57.112Z,25.80
2019-02-23T22:45:03.008Z,25.80
2019-02-23T22:48:08.928Z,25.70
2019-02-23T22:51:14.983Z,25.70
2019-02-23T22:54:20.953Z,26.00
2019-02-23T22:57:26.859Z,28.10
2019-02-23T23:00:50.628Z,27.90
2019-02-23T23:03:58.227Z,26.70
2019-02-23T23:07:05.262Z,28.70
2019-02-23T23:10:13.099Z,27.70
2019-02-23T23:13:20.267Z,26.40
2019-02-23T23:16:26.248Z,26.50
2019-02-23T23:19:32.081Z,26.60
2019-02-23T23:22:37.940Z,26.60
2019-02-23T23:25:43.932Z,26.70
2019-02-23T23:28:49.860Z,26.80
2019-02-23T23:32:25.968Z,26.90
2019-02-23T23:35:31.984Z,26.90
2019-02-23T23:38:37.944Z,27.10
2019-02-23T23:41:44.045Z,27.00
2019-02-23T23:44:49.967Z,27.10
2019-02-23T23:47:56.071Z,27.00
2019-02-23T23:51:02.096Z,27.10
2019-02-23T23:54:08.043Z,27.10
2019-02-23T23:57:14.012Z,27.10
